Home > Products > Valid Products > TAF

000
FTUS46 KMTR 272300 RRA
TAFMRY
TAF
KMRY 272341Z 2800/2824 29010KT P6SM FEW011 SCT250
     FM280200 21005KT P6SM SCT007
      TEMPO 2802/2804 BKN007
     FM280400 24004KT P6SM OVC006
     FM281800 28005KT P6SM BKN011
     FM281900 29007KT P6SM FEW012=



000
FTUS46 KMTR 272300 RRA
TAFOAK
TAF
KOAK 272341Z 2800/2906 29015G19KT P6SM SKC
     FM280400 29010KT P6SM SCT009
      TEMPO 2804/2808 BKN007
     FM280800 29007KT P6SM OVC007
     FM281700 25014G18KT P6SM FEW012
     FM281900 29017G27KT P6SM FEW015 SCT250
     FM290300 29017KT P6SM SCT012 BKN250=



000
FTUS46 KMTR 272300 RRA
TAFSNS
TAF
KSNS 272341Z 2800/2824 29017G22KT P6SM FEW012 SCT250
     FM280200 29016KT P6SM SCT009
      TEMPO 2803/2805 BKN009
     FM280500 29009KT P6SM OVC009
     FM281730 29006KT P6SM BKN012
     FM281800 29017G21KT P6SM FEW015=



000
FTUS46 KMTR 272300 RRA
TAFLVK
TAF
KLVK 272341Z 2800/2824 33010KT P6SM FEW250
     FM280400 VRB04KT P6SM SKC
     FM281800 29012KT P6SM FEW250=



000
FTUS46 KMTR 272300 RRA
TAFSJC
TAF
KSJC 272341Z 2800/2824 31014G19KT P6SM FEW200
     FM280400 30011KT P6SM SKC
     FM280900 30004KT P6SM FEW012
     FM281800 31015G25KT P6SM FEW250=



000
FTUS46 KMTR 272300 RRA
TAFSTS
TAF
KSTS 272341Z 2800/2824 26009G15KT P6SM SKC
     FM280500 VRB04KT P6SM SKC
     FM281800 21012G17KT P6SM FEW011 SCT250=



000
FTUS46 KMTR 272300 RRA
TAFSFO
TAF
KSFO 272341Z 2800/2906 29020G30KT P6SM FEW250
     FM280400 28017G22KT P6SM SKC
     FM280600 28010KT P6SM FEW010
      TEMPO 2813/2817 BKN010
     FM281900 29017G22KT P6SM FEW015 SCT250
     FM282300 29020G34KT P6SM FEW012 SCT250
     FM290400 29017G25KT P6SM FEW012 BKN250=



000
FTUS46 KMTR 272300 RRA
TAFSJC
TAF
KSJC 272341Z 2800/2824 31014G19KT P6SM FEW200
     FM280400 30011KT P6SM SKC
     FM280900 30004KT P6SM FEW012
     FM281800 31015G25KT P6SM FEW250=



000
FTUS46 KMTR 272300 RRA
TAFMRY
TAF
KMRY 272341Z 2800/2824 29010KT P6SM FEW011 SCT250
     FM280200 21005KT P6SM SCT007
      TEMPO 2802/2804 BKN007
     FM280400 24004KT P6SM OVC006
     FM281800 28005KT P6SM BKN011
     FM281900 29007KT P6SM FEW012=



000
FTUS46 KMTR 272300 RRA
TAFSFO
TAF
KSFO 272341Z 2800/2906 29020G30KT P6SM FEW250
     FM280400 28017G22KT P6SM SKC
     FM280600 28010KT P6SM FEW010
      TEMPO 2813/2817 BKN010
     FM281900 29017G22KT P6SM FEW015 SCT250
     FM282300 29020G34KT P6SM FEW012 SCT250
     FM290400 29017G25KT P6SM FEW012 BKN250=



000
FTUS46 KMTR 272300 RRA
TAFSTS
TAF
KSTS 272341Z 2800/2824 26009G15KT P6SM SKC
     FM280500 VRB04KT P6SM SKC
     FM281800 21012G17KT P6SM FEW011 SCT250=



000
FTUS46 KMTR 272300 RRA
TAFOAK
TAF
KOAK 272341Z 2800/2906 29015G19KT P6SM SKC
     FM280400 29010KT P6SM SCT009
      TEMPO 2804/2808 BKN007
     FM280800 29007KT P6SM OVC007
     FM281700 25014G18KT P6SM FEW012
     FM281900 29017G27KT P6SM FEW015 SCT250
     FM290300 29017KT P6SM SCT012 BKN250=



000
FTUS46 KMTR 272300 RRA
TAFSNS
TAF
KSNS 272341Z 2800/2824 29017G22KT P6SM FEW012 SCT250
     FM280200 29016KT P6SM SCT009
      TEMPO 2803/2805 BKN009
     FM280500 29009KT P6SM OVC009
     FM281730 29006KT P6SM BKN012
     FM281800 29017G21KT P6SM FEW015=



000
FTUS46 KMTR 272300 RRA
TAFLVK
TAF
KLVK 272341Z 2800/2824 33010KT P6SM FEW250
     FM280400 VRB04KT P6SM SKC
     FM281800 29012KT P6SM FEW250=



000
FTUS46 KMTR 272100 AAA
TAFSFO
TAF AMD
KSFO 272100Z 2721/2824 29018KT P6SM SCT200
     FM280500 28012KT P6SM SKC
     FM280900 28010KT P6SM SCT015
     FM281300 28005KT P6SM BKN015
     FM281900 29012KT P6SM FEW015 FEW250=



000
FTUS46 KMTR 272100 AAA
TAFSFO
TAF AMD
KSFO 272100Z 2721/2824 29018KT P6SM SCT200
     FM280500 28012KT P6SM SKC
     FM280900 28010KT P6SM SCT015
     FM281300 28005KT P6SM BKN015
     FM281900 29012KT P6SM FEW015 FEW250=



000
FTUS46 KMTR 271700
TAFSJC
TAF
KSJC 271737Z 2718/2818 30006KT P6SM FEW140
     FM272300 31011KT P6SM FEW180
     FM280500 30006KT P6SM FEW180
     FM280900 00000KT P6SM SCT015
     FM281700 VRB04KT P6SM FEW250=



000
FTUS46 KMTR 271700
TAFMRY
TAF
KMRY 271737Z 2718/2818 26007KT P6SM SKC
     FM272000 29010KT P6SM SKC
     FM280300 21005KT P6SM SKC
     FM280900 VRB04KT P6SM BKN015
     FM281700 28005KT P6SM SKC=



000
FTUS46 KMTR 271700
TAFSTS
TAF
KSTS 271737Z 2718/2818 32005KT P6SM FEW200
     FM272000 VRB04KT P6SM SKC
     FM272200 18010KT P6SM SKC
     FM280500 VRB03KT P6SM SKC
     FM280800 00000KT P6SM BKN015=



000
FTUS46 KMTR 271700
TAFLVK
TAF
KLVK 271737Z 2718/2818 VRB05KT P6SM FEW200
     FM272200 28010KT P6SM SKC
     FM280400 00000KT P6SM SKC
     FM281100 VRB03KT P6SM OVC015
     FM281700 24003KT P6SM FEW250=



000
FTUS46 KMTR 271700
TAFSNS
TAF
KSNS 271737Z 2718/2818 27008KT P6SM SKC
     FM272200 28012KT P6SM SKC
     FM280200 29009KT P6SM SKC
     FM280700 31006KT P6SM OVC015
     FM281700 29006KT P6SM SKC=



000
FTUS46 KMTR 271700
TAFOAK
TAF
KOAK 271737Z 2718/2824 24007KT P6SM FEW200
     FM272000 26013KT P6SM SKC
     FM280500 29006KT P6SM SKC
     FM280800 VRB04KT P6SM BKN015
     FM281200 24006KT P6SM OVC015
     FM281800 25008KT P6SM FEW015 FEW250=



000
FTUS46 KMTR 271700
TAFSFO
TAF
KSFO 271737Z 2718/2824 VRB04KT P6SM FEW200
     FM272000 29018KT P6SM SKC
     FM280500 28012KT P6SM SKC
     FM280900 28010KT P6SM SCT015
     FM281300 28005KT P6SM BKN015
     FM281900 29012KT P6SM FEW015 FEW250=



000
FTUS46 KMTR 271700
TAFSTS
TAF
KSTS 271737Z 2718/2818 32005KT P6SM FEW200
     FM272000 VRB04KT P6SM SKC
     FM272200 18010KT P6SM SKC
     FM280500 VRB03KT P6SM SKC
     FM280800 00000KT P6SM BKN015=



000
FTUS46 KMTR 271700
TAFMRY
TAF
KMRY 271737Z 2718/2818 26007KT P6SM SKC
     FM272000 29010KT P6SM SKC
     FM280300 21005KT P6SM SKC
     FM280900 VRB04KT P6SM BKN015
     FM281700 28005KT P6SM SKC=



000
FTUS46 KMTR 271700
TAFOAK
TAF
KOAK 271737Z 2718/2824 24007KT P6SM FEW200
     FM272000 26013KT P6SM SKC
     FM280500 29006KT P6SM SKC
     FM280800 VRB04KT P6SM BKN015
     FM281200 24006KT P6SM OVC015
     FM281800 25008KT P6SM FEW015 FEW250=



000
FTUS46 KMTR 271700
TAFSFO
TAF
KSFO 271737Z 2718/2824 VRB04KT P6SM FEW200
     FM272000 29018KT P6SM SKC
     FM280500 28012KT P6SM SKC
     FM280900 28010KT P6SM SCT015
     FM281300 28005KT P6SM BKN015
     FM281900 29012KT P6SM FEW015 FEW250=



000
FTUS46 KMTR 271700
TAFSNS
TAF
KSNS 271737Z 2718/2818 27008KT P6SM SKC
     FM272200 28012KT P6SM SKC
     FM280200 29009KT P6SM SKC
     FM280700 31006KT P6SM OVC015
     FM281700 29006KT P6SM SKC=



000
FTUS46 KMTR 271700
TAFSJC
TAF
KSJC 271737Z 2718/2818 30006KT P6SM FEW140
     FM272300 31011KT P6SM FEW180
     FM280500 30006KT P6SM FEW180
     FM280900 00000KT P6SM SCT015
     FM281700 VRB04KT P6SM FEW250=



000
FTUS46 KMTR 271700
TAFLVK
TAF
KLVK 271737Z 2718/2818 VRB05KT P6SM FEW200
     FM272200 28010KT P6SM SKC
     FM280400 00000KT P6SM SKC
     FM281100 VRB03KT P6SM OVC015
     FM281700 24003KT P6SM FEW250=



000
FTUS46 KMTR 271400 AAA
TAFSFO
TAF AMD
KSFO 271459Z 2715/2818 27004KT P6SM FEW200
     FM272000 29018KT P6SM SKC
     FM280500 28012KT P6SM SKC
     FM280900 28010KT P6SM BKN015
     FM281300 28005KT P6SM BKN015=



000
FTUS46 KMTR 271400 AAA
TAFSFO
TAF AMD
KSFO 271459Z 2715/2818 27004KT P6SM FEW200
     FM272000 29018KT P6SM SKC
     FM280500 28012KT P6SM SKC
     FM280900 28010KT P6SM BKN015
     FM281300 28005KT P6SM BKN015=



000
FTUS46 KMTR 271100
TAFMRY
TAF
KMRY 271120Z 2712/2812 00000KT P6SM SKC
     FM271600 26007KT P6SM SKC
     FM272000 29010KT P6SM SKC
     FM280300 21005KT P6SM SKC
     FM280900 20004KT P6SM BKN015=



000
FTUS46 KMTR 271100
TAFLVK
TAF
KLVK 271120Z 2712/2812 00000KT P6SM SKC
     FM271700 VRB03KT P6SM SKC
     FM272200 28010KT P6SM SKC
     FM280400 00000KT P6SM SKC
     FM281100 VRB03KT P6SM OVC015=



000
FTUS46 KMTR 271100
TAFSFO
TAF
KSFO 271120Z 2712/2818 27004KT P6SM SKC
     FM271600 03006KT P6SM SKC
     FM272000 29018KT P6SM SKC
     FM280500 28012KT P6SM SKC
     FM280900 28010KT P6SM BKN015
     FM281300 28005KT P6SM BKN015=



000
FTUS46 KMTR 271100
TAFSTS
TAF
KSTS 271120Z 2712/2812 32005KT P6SM SKC
     FM272000 VRB04KT P6SM SKC
     FM272200 18010KT P6SM SKC
     FM280500 00000KT P6SM SKC=



000
FTUS46 KMTR 271100
TAFSJC
TAF
KSJC 271120Z 2712/2812 00000KT P6SM SKC
     FM271800 30006KT P6SM FEW180
     FM272300 31011KT P6SM FEW180
     FM280500 30006KT P6SM FEW180
     FM280900 00000KT P6SM OVC015=



000
FTUS46 KMTR 271100
TAFSNS
TAF
KSNS 271120Z 2712/2812 00000KT P6SM SKC
     FM271600 12004KT P6SM SKC
     FM271800 27008KT P6SM SKC
     FM272200 28012KT P6SM SKC
     FM280200 29009KT P6SM SKC
     FM280700 31006KT P6SM OVC015=



000
FTUS46 KMTR 271100
TAFOAK
TAF
KOAK 271120Z 2712/2818 00000KT P6SM FEW200
     FM271700 24007KT P6SM SKC
     FM272000 26013KT P6SM SKC
     FM280500 29006KT P6SM SKC
     FM280800 27005KT P6SM BKN015
     FM281200 24006KT P6SM OVC015=



000
FTUS46 KMTR 270900 AAA
TAFSFO
TAF AMD
KSFO 270949Z 2710/2812 27004KT P6SM SKC
     FM271600 03006KT P6SM SKC
     FM272000 29016KT P6SM SKC
     FM280600 28011KT P6SM BKN015=



000
FTUS46 KMTR 270500
TAFSFO
TAF
KSFO 270534Z 2706/2812 28012KT P6SM FEW013
     FM270800 27010KT P6SM FEW015
     FM271300 28005KT P6SM FEW015
     FM271600 03006KT P6SM SKC
     FM272000 29016KT P6SM SKC
     FM280600 28011KT P6SM BKN015=



000
FTUS46 KMTR 270500
TAFLVK
TAF
KLVK 270534Z 2706/2806 00000KT P6SM SKC
     FM271700 VRB03KT P6SM SKC
     FM272200 28010KT P6SM SKC
     FM280400 00000KT P6SM SKC=



000
FTUS46 KMTR 270500
TAFSJC
TAF
KSJC 270534Z 2706/2806 31005KT P6SM SCT180
     FM271100 VRB03KT P6SM FEW180
     FM271800 30006KT P6SM FEW180
     FM272300 31011KT P6SM FEW180
     FM280500 30006KT P6SM FEW180=



000
FTUS46 KMTR 270500
TAFMRY
TAF
KMRY 270534Z 2706/2806 18003KT P6SM SKC
     FM271100 00000KT P6SM SKC
     FM271600 26007KT P6SM SKC
     FM272000 29010KT P6SM SKC
     FM280300 22005KT P6SM BKN015=



000
FTUS46 KMTR 270500
TAFSNS
TAF
KSNS 270534Z 2706/2806 32004KT P6SM SKC
     FM270900 VRB03KT P6SM SKC
     FM271600 12004KT P6SM SKC
     FM271800 27008KT P6SM SKC
     FM272200 28012KT P6SM SKC
     FM280200 29009KT P6SM SKC
     FM280400 31006KT P6SM OVC015=



000
FTUS46 KMTR 270500
TAFSTS
TAF
KSTS 270534Z 2706/2806 34006KT P6SM SKC
     FM272000 VRB04KT P6SM SKC
     FM272200 18010KT P6SM SKC=



000
FTUS46 KMTR 270500
TAFOAK
TAF
KOAK 270534Z 2706/2812 28006KT P6SM FEW012 SCT200
     FM271000 05003KT P6SM FEW012 SCT200
     FM271700 24007KT P6SM SKC
     FM272000 26013KT P6SM SKC
     FM280500 29006KT P6SM SKC
     FM280800 28005KT P6SM BKN015=



000
FTUS46 KMTR 270300 AAA
TAFSFO
TAF AMD
KSFO 270301Z 2703/2806 28015G20KT P6SM FEW015 SCT200
     FM270800 27015KT P6SM FEW015
     FM271300 28009KT P6SM FEW015
     FM271600 03006KT P6SM SKC
     FM272000 30016KT P6SM SKC=



000
FTUS46 KMTR 262300
TAFSTS
TAF
KSTS 262333Z 2700/2724 29010KT P6SM FEW200
     FM270400 32005KT P6SM SKC
     FM272000 VRB04KT P6SM SKC=



000
FTUS46 KMTR 262300
TAFSFO
TAF
KSFO 262333Z 2700/2806 27022KT P6SM SCT200
      TEMPO 2700/2704 27023G30KT
     FM271100 27015KT P6SM FEW008
     FM271300 28009KT P6SM FEW008
     FM271600 03006KT P6SM SKC
     FM272000 30016KT P6SM SKC=



000
FTUS46 KMTR 262300
TAFLVK
TAF
KLVK 262333Z 2700/2724 26012KT P6SM SKC
     FM270100 26009KT P6SM SKC
     FM270400 25004KT P6SM SKC
     FM271100 00000KT P6SM SKC
     FM271700 30005KT P6SM SKC
     FM272000 28010KT P6SM SKC=



000
FTUS46 KMTR 262300
TAFOAK
TAF
KOAK 262333Z 2700/2806 27014KT P6SM FEW016 SCT200
     FM270500 29006KT P6SM SKC
     FM271000 05003KT P6SM SKC
     FM271700 24007KT P6SM SKC
     FM272000 26013KT P6SM SKC
     FM280500 29006KT P6SM SKC=



000
FTUS46 KMTR 262300
TAFMRY
TAF
KMRY 262333Z 2700/2724 28011KT P6SM SKC
     FM270200 22005KT P6SM SKC
     FM271100 20005KT P6SM SKC
     FM271600 26007KT P6SM SKC
     FM272000 29010KT P6SM SKC=



000
FTUS46 KMTR 262300
TAFSJC
TAF
KSJC 262333Z 2700/2724 31014KT P6SM SCT180
      TEMPO 2700/2703 31015G20KT
     FM270300 33010KT P6SM FEW180
     FM271100 VRB03KT P6SM SKC
     FM271800 30009KT P6SM FEW250=



000
FTUS46 KMTR 262300
TAFSNS
TAF
KSNS 262333Z 2700/2724 25015KT P6SM SKC
      TEMPO 2700/2704 26015G20KT
     FM270400 25010KT P6SM SKC
     FM270900 VRB03KT P6SM SKC
     FM271600 12004KT P6SM SKC
     FM271800 27008KT P6SM SKC
     FM272200 28012KT P6SM SKC=



000
FTUS46 KMTR 262100 AAA
TAFOAK
TAF AMD
KOAK 262121Z 2621/2724 25012KT P6SM SCT200
     FM270500 29006KT P6SM SKC
     FM271800 27012KT P6SM FEW040=



000
FTUS46 KMTR 262100 AAB
TAFSFO
TAF AMD
KSFO 262109Z 2621/2724 28015KT P6SM FEW200
      TEMPO 2622/2702 28020G25KT
     FM270400 29020KT P6SM FEW008
     FM270700 28015KT P6SM FEW008=



000
FTUS46 KMTR 262100 AAB
TAFSFO
TAF AMD
KSFO 262109Z 2621/2724 28015KT P6SM FEW200
      TEMPO 2622/2702 28020G25KT
     FM270400 29020KT P6SM FEW008
     FM270700 28015KT P6SM FEW008=



000
FTUS46 KMTR 262000 AAA
TAFSJC
TAF AMD
KSJC 262006Z 2620/2718 30010KT P6SM SCT250
      TEMPO 2622/2702 31015G20KT
     FM270300 33010KT P6SM FEW250
     FM270700 31003KT P6SM SKC=



000
FTUS46 KMTR 262000 AAA
TAFSFO
TAF AMD
KSFO 262005Z 2620/2724 28015KT P6SM FEW200
      TEMPO 2622/2702 28020G25KT
     FM270400 29020KT P6SM FEW008
     FM270700 28015KT P6SM FEW008=



000
FTUS46 KMTR 262000 AAA
TAFSTS
TAF AMD
KSTS 262005Z 2620/2718 34008KT P6SM FEW200
     FM270800 34006KT P6SM SKC=



000
FTUS46 KMTR 262000 AAA
TAFSTS
TAF AMD
KSTS 262005Z 2620/2718 34008KT P6SM FEW200
     FM270800 34006KT P6SM SKC=



000
FTUS46 KMTR 261700
TAFLVK
TAF
KLVK 261721Z 2618/2718 25006KT P6SM FEW250
     FM262100 27010G15KT P6SM FEW250
     FM270400 25004KT P6SM SKC=



000
FTUS46 KMTR 261700
TAFSTS
TAF
KSTS 261721Z 2618/2718 34010G15KT P6SM SCT045
     FM270800 34006KT P6SM SKC=



000
FTUS46 KMTR 261700
TAFOAK
TAF
KOAK 261721Z 2618/2724 26005KT P6SM FEW040 SCT250
     FM262100 29012G20KT P6SM FEW050 SCT250
     FM270500 29006KT P6SM SKC
     FM271800 27012KT P6SM FEW040=



000
FTUS46 KMTR 261700
TAFMRY
TAF
KMRY 261721Z 2618/2718 27010G15KT P6SM SKC
     FM270200 24005KT P6SM SCT012
     FM270800 22004KT P6SM BKN015
     FM271600 27007KT P6SM FEW015=



000
FTUS46 KMTR 261700
TAFSFO
TAF
KSFO 261721Z 2618/2724 28010KT P6SM FEW200
     FM261900 28020G25KT P6SM FEW040 SCT200
     FM270400 29020KT P6SM FEW008
     FM270700 28015KT P6SM FEW008=



000
FTUS46 KMTR 261700
TAFSNS
TAF
KSNS 261721Z 2618/2718 24008KT P6SM SKC
     FM261930 26015KT P6SM SKC
     FM270200 26010G15KT P6SM SCT012
     FM270900 24005KT P6SM BKN015
     FM271600 28006KT P6SM FEW015=



000
FTUS46 KMTR 261700
TAFSJC
TAF
KSJC 261721Z 2618/2718 32008KT P6SM SCT250
     FM261900 31015G20KT P6SM SCT250
     FM270300 33010KT P6SM FEW250
     FM270700 31003KT P6SM SKC=



000
FTUS46 KMTR 261700
TAFOAK
TAF
KOAK 261721Z 2618/2724 26005KT P6SM FEW040 SCT250
     FM262100 29012G20KT P6SM FEW050 SCT250
     FM270500 29006KT P6SM SKC
     FM271800 27012KT P6SM FEW040=



000
FTUS46 KMTR 261700
TAFSTS
TAF
KSTS 261721Z 2618/2718 34010G15KT P6SM SCT045
     FM270800 34006KT P6SM SKC=



000
FTUS46 KMTR 261700
TAFSJC
TAF
KSJC 261721Z 2618/2718 32008KT P6SM SCT250
     FM261900 31015G20KT P6SM SCT250
     FM270300 33010KT P6SM FEW250
     FM270700 31003KT P6SM SKC=



000
FTUS46 KMTR 261700
TAFSNS
TAF
KSNS 261721Z 2618/2718 24008KT P6SM SKC
     FM261930 26015KT P6SM SKC
     FM270200 26010G15KT P6SM SCT012
     FM270900 24005KT P6SM BKN015
     FM271600 28006KT P6SM FEW015=



000
FTUS46 KMTR 261700
TAFSFO
TAF
KSFO 261721Z 2618/2724 28010KT P6SM FEW200
     FM261900 28020G25KT P6SM FEW040 SCT200
     FM270400 29020KT P6SM FEW008
     FM270700 28015KT P6SM FEW008=



000
FTUS46 KMTR 261700
TAFLVK
TAF
KLVK 261721Z 2618/2718 25006KT P6SM FEW250
     FM262100 27010G15KT P6SM FEW250
     FM270400 25004KT P6SM SKC=



000
FTUS46 KMTR 261700
TAFMRY
TAF
KMRY 261721Z 2618/2718 27010G15KT P6SM SKC
     FM270200 24005KT P6SM SCT012
     FM270800 22004KT P6SM BKN015
     FM271600 27007KT P6SM FEW015=



000
FTUS46 KMTR 261700 AAA
TAFSNS
TAF AMD
KSNS 261705Z 2617/2712 24008KT P6SM SKC
     FM261930 26015KT P6SM SKC
     FM270200 26010G15KT P6SM SCT012
     FM270500 24005KT P6SM BKN015=



000
FTUS46 KMTR 261700 AAA
TAFSNS
TAF AMD
KSNS 261705Z 2617/2712 24008KT P6SM SKC
     FM261930 26015KT P6SM SKC
     FM270200 26010G15KT P6SM SCT012
     FM270500 24005KT P6SM BKN015=



000
FTUS46 KMTR 261400 AAB
TAFSFO
TAF AMD
KSFO 261458Z 2615/2718 28010KT P6SM FEW200
     FM261900 28020G25KT P6SM FEW040 SCT200
     FM270400 29020KT P6SM FEW008
     FM270700 28015KT P6SM FEW008=



000
FTUS46 KMTR 261400 AAB
TAFSFO
TAF AMD
KSFO 261458Z 2615/2718 28010KT P6SM FEW200
     FM261900 28020G25KT P6SM FEW040 SCT200
     FM270400 29020KT P6SM FEW008
     FM270700 28015KT P6SM FEW008=



000
FTUS46 KMTR 261300 AAA
TAFMRY
TAF AMD
KMRY 261339Z 2614/2712 19005KT P6SM SKC
     FM261730 27010G15KT P6SM SKC
     FM270200 24005KT P6SM SCT012
     FM270400 22004KT P6SM BKN015=



000
FTUS46 KMTR 261300 AAA
TAFSFO
TAF AMD
KSFO 261333Z 2614/2718 28010KT P6SM FEW008 SCT200
     FM261900 28020G25KT P6SM FEW040 SCT200
     FM262100 28025G30KT P6SM FEW040 SCT200
     FM270400 29020KT P6SM FEW008
     FM270700 28015KT P6SM FEW008=



000
FTUS46 KMTR 261300 AAA
TAFSFO
TAF AMD
KSFO 261333Z 2614/2718 28010KT P6SM FEW008 SCT200
     FM261900 28020G25KT P6SM FEW040 SCT200
     FM262100 28025G30KT P6SM FEW040 SCT200
     FM270400 29020KT P6SM FEW008
     FM270700 28015KT P6SM FEW008=



000
FTUS46 KMTR 261100
TAFSNS
TAF
KSNS 261135Z 2612/2712 22008KT P6SM SKC
     FM261700 26015G22KT P6SM SKC
     FM270200 26010G15KT P6SM SCT012
     FM270500 24005KT P6SM BKN015=



000
FTUS46 KMTR 261100
TAFMRY
TAF
KMRY 261135Z 2612/2712 22005KT P6SM BKN015
     FM261730 27010G15KT P6SM FEW018
     FM270200 24005KT P6SM SCT012
     FM270400 22004KT P6SM BKN015=



000
FTUS46 KMTR 261100
TAFSTS
TAF
KSTS 261135Z 2612/2712 32005KT P6SM SKC
     FM261800 34010G15KT P6SM SCT045
     FM270800 34006KT P6SM SKC=



000
FTUS46 KMTR 261100
TAFOAK
TAF
KOAK 261135Z 2612/2718 04004KT P6SM FEW150
     FM261700 26005KT P6SM FEW040 SCT250
     FM262100 29012G20KT P6SM FEW050 SCT250
     FM270500 29006KT P6SM SKC
     FM270800 VRB03KT P6SM BKN008=



000
FTUS46 KMTR 261100
TAFSFO
TAF
KSFO 261135Z 2612/2718 28015G20KT P6SM SCT150
     FM261900 28020G25KT P6SM FEW040 SCT200
     FM262100 28025G30KT P6SM FEW040 SCT200
     FM270400 29020KT P6SM FEW008
     FM270700 28015KT P6SM FEW008=



000
FTUS46 KMTR 261100
TAFLVK
TAF
KLVK 261135Z 2612/2712 00000KT P6SM SCT250
     FM261700 25006KT P6SM FEW250
     FM262100 27010G15KT P6SM FEW250
     FM270400 25004KT P6SM SKC=



000
FTUS46 KMTR 261100
TAFSJC
TAF
KSJC 261135Z 2612/2712 00000KT P6SM SKC
     FM261700 32008KT P6SM SCT250
     FM261900 31015G20KT P6SM SCT250
     FM270300 33010KT P6SM FEW250
     FM270700 31003KT P6SM SKC=



000
FTUS46 KMTR 261100
TAFLVK
TAF
KLVK 261135Z 2612/2712 00000KT P6SM SCT250
     FM261700 25006KT P6SM FEW250
     FM262100 27010G15KT P6SM FEW250
     FM270400 25004KT P6SM SKC=



000
FTUS46 KMTR 261100
TAFSJC
TAF
KSJC 261135Z 2612/2712 00000KT P6SM SKC
     FM261700 32008KT P6SM SCT250
     FM261900 31015G20KT P6SM SCT250
     FM270300 33010KT P6SM FEW250
     FM270700 31003KT P6SM SKC=



000
FTUS46 KMTR 261100
TAFOAK
TAF
KOAK 261135Z 2612/2718 04004KT P6SM FEW150
     FM261700 26005KT P6SM FEW040 SCT250
     FM262100 29012G20KT P6SM FEW050 SCT250
     FM270500 29006KT P6SM SKC
     FM270800 VRB03KT P6SM BKN008=



000
FTUS46 KMTR 261100
TAFSFO
TAF
KSFO 261135Z 2612/2718 28015G20KT P6SM SCT150
     FM261900 28020G25KT P6SM FEW040 SCT200
     FM262100 28025G30KT P6SM FEW040 SCT200
     FM270400 29020KT P6SM FEW008
     FM270700 28015KT P6SM FEW008=



000
FTUS46 KMTR 261100
TAFSNS
TAF
KSNS 261135Z 2612/2712 22008KT P6SM SKC
     FM261700 26015G22KT P6SM SKC
     FM270200 26010G15KT P6SM SCT012
     FM270500 24005KT P6SM BKN015=



000
FTUS46 KMTR 261100
TAFSTS
TAF
KSTS 261135Z 2612/2712 32005KT P6SM SKC
     FM261800 34010G15KT P6SM SCT045
     FM270800 34006KT P6SM SKC=



000
FTUS46 KMTR 261100
TAFMRY
TAF
KMRY 261135Z 2612/2712 22005KT P6SM BKN015
     FM261730 27010G15KT P6SM FEW018
     FM270200 24005KT P6SM SCT012
     FM270400 22004KT P6SM BKN015=



000
FTUS46 KMTR 261000 AAA
TAFSTS
TAF AMD
KSTS 261003Z 2610/2706 32005KT P6SM SKC
     FM261800 34010G15KT P6SM SKC
     FM270200 VRB03KT P6SM FEW015=



000
FTUS46 KMTR 260900 AAA
TAFSNS
TAF AMD
KSNS 260923Z 2609/2706 22008KT P6SM SKC
     FM261700 28014KT P6SM SCT020
     FM270200 28009KT P6SM SCT012=



000
FTUS46 KMTR 260900 AAA
TAFMRY
TAF AMD
KMRY 260922Z 2609/2706 22006KT P6SM BKN015 BKN025
     FM261730 28012KT P6SM FEW018
     FM270200 28007KT P6SM SCT012=



000
FTUS46 KMTR 260900 AAA
TAFOAK
TAF AMD
KOAK 260921Z 2609/2712 29008KT P6SM FEW012 FEW120
     FM261700 26011KT P6SM SCT018
     FM262100 29012KT P6SM FEW025
     FM270300 29009KT P6SM FEW020=



000
FTUS46 KMTR 260900 AAA
TAFSFO
TAF AMD
KSFO 260914Z 2609/2712 28015G22KT P6SM FEW011 SCT150
     FM261400 28015KT P6SM FEW011 SCT150
     FM262100 28015G25KT P6SM FEW030
     FM270400 29015G20KT P6SM FEW025=



000
FTUS46 KMTR 260900 AAA
TAFSFO
TAF AMD
KSFO 260914Z 2609/2712 28015G22KT P6SM FEW011 SCT150
     FM261400 28015KT P6SM FEW011 SCT150
     FM262100 28015G25KT P6SM FEW030
     FM270400 29015G20KT P6SM FEW025=



000
FTUS46 KMTR 260500
TAFLVK
TAF
KLVK 260520Z 2606/2706 29004KT P6SM SCT015
     FM261700 28006KT P6SM SKC
     FM270200 VRB03KT P6SM SKC=



000
FTUS46 KMTR 260500
TAFSTS
TAF
KSTS 260520Z 2606/2706 30010KT P6SM FEW015
     FM261000 31004KT P6SM BKN012
     FM261600 33005KT P6SM FEW015
     FM270200 VRB03KT P6SM FEW015=



000
FTUS46 KMTR 260500
TAFSNS
TAF
KSNS 260520Z 2606/2706 26012KT P6SM SCT015
     FM261700 28014KT P6SM SCT020
     FM270200 28009KT P6SM SCT012=



000
FTUS46 KMTR 260500
TAFOAK
TAF
KOAK 260520Z 2606/2712 28017KT P6SM FEW030 SCT250
     FM260900 26008KT P6SM BKN015
     FM261700 26011KT P6SM SCT018
     FM262100 29012KT P6SM FEW025
     FM270300 29009KT P6SM FEW020=



000
FTUS46 KMTR 260500
TAFMRY
TAF
KMRY 260520Z 2606/2706 24014G19KT P6SM FEW030
     FM260700 24008KT P6SM SCT015
     FM261730 28012KT P6SM FEW018
     FM270200 28007KT P6SM SCT012=



000
FTUS46 KMTR 260500
TAFSNS
TAF
KSNS 260520Z 2606/2706 26012KT P6SM SCT015
     FM261700 28014KT P6SM SCT020
     FM270200 28009KT P6SM SCT012=



000
FTUS46 KMTR 260500
TAFOAK
TAF
KOAK 260520Z 2606/2712 28017KT P6SM FEW030 SCT250
     FM260900 26008KT P6SM BKN015
     FM261700 26011KT P6SM SCT018
     FM262100 29012KT P6SM FEW025
     FM270300 29009KT P6SM FEW020=



000
FTUS46 KMTR 260500
TAFLVK
TAF
KLVK 260520Z 2606/2706 29004KT P6SM SCT015
     FM261700 28006KT P6SM SKC
     FM270200 VRB03KT P6SM SKC=



000
FTUS46 KMTR 260500
TAFSFO
TAF
KSFO 260520Z 2606/2712 28015G22KT P6SM FEW030 SCT250
     FM261000 28015KT P6SM FEW025
     FM262100 28015G25KT P6SM FEW030
     FM270400 29015G20KT P6SM FEW025=



000
FTUS46 KMTR 260500
TAFSTS
TAF
KSTS 260520Z 2606/2706 30010KT P6SM FEW015
     FM261000 31004KT P6SM BKN012
     FM261600 33005KT P6SM FEW015
     FM270200 VRB03KT P6SM FEW015=



000
FTUS46 KMTR 260500
TAFSJC
TAF
KSJC 260520Z 2606/2706 23009KT P6SM FEW020 SCT035
     FM260900 31005KT P6SM SCT020
     FM261900 31012KT P6SM FEW030
     FM270200 29007KT P6SM FEW030=



000
FTUS46 KMTR 260500
TAFSJC
TAF
KSJC 260520Z 2606/2706 23009KT P6SM FEW020 SCT035
     FM260900 31005KT P6SM SCT020
     FM261900 31012KT P6SM FEW030
     FM270200 29007KT P6SM FEW030=



000
FTUS46 KMTR 260500
TAFSFO
TAF
KSFO 260520Z 2606/2712 28015G22KT P6SM FEW030 SCT250
     FM261000 28015KT P6SM FEW025
     FM262100 28015G25KT P6SM FEW030
     FM270400 29015G20KT P6SM FEW025=



000
FTUS46 KMTR 260500
TAFMRY
TAF
KMRY 260520Z 2606/2706 24014G19KT P6SM FEW030
     FM260700 24008KT P6SM SCT015
     FM261730 28012KT P6SM FEW018
     FM270200 28007KT P6SM SCT012=



000
FTUS46 KMTR 260300 AAB
TAFSFO
TAF AMD
KSFO 260304Z 2603/2706 27030G40KT P6SM FEW030 SCT250
     FM260400 28020G35KT P6SM FEW020
     FM260500 28015G25KT P6SM SCT025
     FM261000 28015KT P6SM FEW025
     FM262100 28015G25KT P6SM FEW030
     FM270400 29015G20KT P6SM FEW025=



000
FTUS46 KMTR 260100 AAA
TAFSFO
TAF AMD
KSFO 260118Z 2601/2706 27030G40KT P6SM FEW030 SCT250
     FM260400 28020G35KT P6SM FEW020
     FM260500 28015G25KT P6SM SCT025
     FM261000 28015KT P6SM FEW025
     FM262100 28015G25KT P6SM FEW030
     FM270400 29015G20KT P6SM FEW025=



000
FTUS46 KMTR 252300
TAFSNS
TAF
KSNS 252320Z 2600/2624 25017G22KT P6SM FEW020
     FM260400 26012KT P6SM SCT015
     FM261700 28014KT P6SM SCT020=



000
FTUS46 KMTR 252300
TAFMRY
TAF
KMRY 252320Z 2600/2624 24012G21KT P6SM FEW030
     FM260500 24008KT P6SM SCT015
     FM261730 28012KT P6SM FEW018=



000
FTUS46 KMTR 252300
TAFLVK
TAF
KLVK 252320Z 2600/2624 23007KT P6SM BKN030 OVC040
     FM260300 22010G18KT P6SM SCT025 SCT100
     FM260600 23004KT P6SM SCT015
     FM261700 28006KT P6SM SKC=



000
FTUS46 KMTR 252300
TAFSJC
TAF
KSJC 252320Z 2600/2624 31012G18KT P6SM FEW020 SCT035
     FM260700 31005KT P6SM SCT018
     FM261900 31012KT P6SM FEW030=



000
FTUS46 KMTR 252300
TAFSFO
TAF
KSFO 252320Z 2600/2706 25020G28KT P6SM FEW030 SCT250
     FM260600 28015G19KT P6SM SCT020
     FM261700 28010KT P6SM SCT025
     FM262100 28015KT P6SM FEW025
     FM270400 29015G22KT P6SM FEW025=



000
FTUS46 KMTR 252300
TAFSNS
TAF
KSNS 252320Z 2600/2624 25017G22KT P6SM FEW020
     FM260400 26012KT P6SM SCT015
     FM261700 28014KT P6SM SCT020=



000
FTUS46 KMTR 252300
TAFSJC
TAF
KSJC 252320Z 2600/2624 31012G18KT P6SM FEW020 SCT035
     FM260700 31005KT P6SM SCT018
     FM261900 31012KT P6SM FEW030=



000
FTUS46 KMTR 252300
TAFSTS
TAF
KSTS 252320Z 2600/2624 28012G18KT P6SM SCT040
     FM260400 30010KT P6SM SCT015
     FM260800 31004KT P6SM BKN012
     FM261600 33005KT P6SM FEW015=



000
FTUS46 KMTR 252300
TAFOAK
TAF
KOAK 252320Z 2600/2706 28012G22KT P6SM FEW030 SCT250
     FM260800 26008KT P6SM BKN015
     FM261700 26011KT P6SM SCT018
     FM262100 29012KT P6SM FEW025
     FM270300 29009KT P6SM FEW020=



000
FTUS46 KMTR 252300
TAFOAK
TAF
KOAK 252320Z 2600/2706 28012G22KT P6SM FEW030 SCT250
     FM260800 26008KT P6SM BKN015
     FM261700 26011KT P6SM SCT018
     FM262100 29012KT P6SM FEW025
     FM270300 29009KT P6SM FEW020=



000
FTUS46 KMTR 252300
TAFSTS
TAF
KSTS 252320Z 2600/2624 28012G18KT P6SM SCT040
     FM260400 30010KT P6SM SCT015
     FM260800 31004KT P6SM BKN012
     FM261600 33005KT P6SM FEW015=



000
FTUS46 KMTR 252300
TAFSFO
TAF
KSFO 252320Z 2600/2706 25020G28KT P6SM FEW030 SCT250
     FM260600 28015G19KT P6SM SCT020
     FM261700 28010KT P6SM SCT025
     FM262100 28015KT P6SM FEW025
     FM270400 29015G22KT P6SM FEW025=



000
FTUS46 KMTR 252300
TAFLVK
TAF
KLVK 252320Z 2600/2624 23007KT P6SM BKN030 OVC040
     FM260300 22010G18KT P6SM SCT025 SCT100
     FM260600 23004KT P6SM SCT015
     FM261700 28006KT P6SM SKC=



000
FTUS46 KMTR 252300
TAFMRY
TAF
KMRY 252320Z 2600/2624 24012G21KT P6SM FEW030
     FM260500 24008KT P6SM SCT015
     FM261730 28012KT P6SM FEW018=



000
FTUS46 KMTR 252100 AAA
TAFSNS
TAF AMD
KSNS 252126Z 2521/2618 25013KT P6SM BKN020
      TEMPO 2521/2524 SCT019
     FM260300 26008G12KT P6SM BKN015
     FM261700 28010KT P6SM SCT020=



000
FTUS46 KMTR 252100 AAA
TAFSNS
TAF AMD
KSNS 252126Z 2521/2618 25013KT P6SM BKN020
      TEMPO 2521/2524 SCT019
     FM260300 26008G12KT P6SM BKN015
     FM261700 28010KT P6SM SCT020=



000
FTUS46 KMTR 252100 AAC
TAFLVK
TAF AMD
KLVK 252126Z 2521/2618 23007KT P6SM BKN030 OVC040
     FM260300 22010G18KT P6SM SCT025 SCT100
     FM260600 23004KT P6SM SCT015
     FM261700 28006KT P6SM SKC=



000
FTUS46 KMTR 252100 AAA
TAFMRY
TAF AMD
KMRY 252125Z 2521/2618 24012G21KT P6SM SCT020
     FM260400 24008G12KT P6SM BKN015
     FM261730 28006KT P6SM SCT018=



000
FTUS46 KMTR 252100 AAA
TAFMRY
TAF AMD
KMRY 252125Z 2521/2618 24012G21KT P6SM SCT020
     FM260400 24008G12KT P6SM BKN015
     FM261730 28006KT P6SM SCT018=



000
FTUS46 KMTR 252100 AAB
TAFSFO
TAF AMD
KSFO 252114Z 2521/2624 25020KT P6SM FEW018 BKN200
     FM260700 28012KT P6SM BKN020
     FM261700 28010KT P6SM SCT025
     FM262100 28015KT P6SM FEW025=



000
FTUS46 KMTR 251900 AAA
TAFSJC
TAF AMD
KSJC 251910Z 2519/2618 33009KT P6SM FEW018 SCT030 BKN200
     FM252000 31012G18KT P6SM FEW020 SCT035
     FM260700 31005KT P6SM SCT018=



000
FTUS46 KMTR 251900 AAB
TAFLVK
TAF AMD
KLVK 251910Z 2519/2618 21008KT P6SM SCT018 BKN024 OVC030
     FM252000 24010G18KT P6SM SCT020 BKN040
     FM260300 22010G18KT P6SM SCT025 SCT100
     FM260600 23004KT P6SM SCT015
     FM261700 28006KT P6SM SKC=



000
FTUS46 KMTR 251800 AAA
TAFLVK
TAF AMD
KLVK 251817Z 2518/2618 24008KT P6SM BKN016
     FM252000 24010G18KT P6SM SCT020 BKN040
     FM260300 22010G18KT P6SM SCT025 SCT100
     FM260600 23004KT P6SM SCT015
     FM261700 28006KT P6SM SKC=



000
FTUS46 KMTR 251800 AAA
TAFOAK
TAF AMD
KOAK 251817Z 2518/2624 28012G22KT P6SM FEW008 SCT022 BKN200
     FM260800 26008KT P6SM BKN015
     FM261700 26011KT P6SM SCT018
     FM262100 29012KT P6SM FEW025=



000
FTUS46 KMTR 251800 AAA
TAFLVK
TAF AMD
KLVK 251817Z 2518/2618 24008KT P6SM BKN016
     FM252000 24010G18KT P6SM SCT020 BKN040
     FM260300 22010G18KT P6SM SCT025 SCT100
     FM260600 23004KT P6SM SCT015
     FM261700 28006KT P6SM SKC=



000
FTUS46 KMTR 251800 AAA
TAFOAK
TAF AMD
KOAK 251817Z 2518/2624 28012G22KT P6SM FEW008 SCT022 BKN200
     FM260800 26008KT P6SM BKN015
     FM261700 26011KT P6SM SCT018
     FM262100 29012KT P6SM FEW025=



000
FTUS46 KMTR 251800 AAA
TAFSFO
TAF AMD
KSFO 251815Z 2518/2624 27024G30KT P6SM FEW009 SCT014 BKN200
     FM260700 28012KT P6SM BKN020
     FM261700 28010KT P6SM SCT025
     FM262100 28015KT P6SM FEW025=



000
FTUS46 KMTR 251700 RRA
TAFSNS
TAF
KSNS 251742Z 2518/2618 25013G22KT P6SM BKN016 BKN022
      TEMPO 2520/2524 SCT019
     FM260200 26008G12KT P6SM BKN015
     FM261700 28010KT P6SM SCT020=



000
FTUS46 KMTR 251700 RRA
TAFMRY
TAF
KMRY 251741Z 2518/2618 25009KT 5SM BR BKN009 OVC015
      TEMPO 2520/2524 SCT018
     FM260200 24008G12KT P6SM BKN015
     FM261730 28006KT P6SM SCT018=



000
FTUS46 KMTR 251700 RRA
TAFMRY
TAF
KMRY 251741Z 2518/2618 25009KT 5SM BR BKN009 OVC015
      TEMPO 2520/2524 SCT018
     FM260200 24008G12KT P6SM BKN015
     FM261730 28006KT P6SM SCT018=



000
FTUS46 KMTR 251700
TAFLVK
TAF
KLVK 251740Z 2518/2618 26012KT P6SM FEW016 SCT024 BKN030
     FM252000 24010G18KT P6SM SCT030 BKN040
     FM260300 22010G18KT P6SM SCT025 SCT100
     FM260600 23004KT P6SM SCT015
     FM261700 28006KT P6SM SKC=



000
FTUS46 KMTR 251700
TAFSFO
TAF
KSFO 251739Z 2518/2624 28022G27KT P6SM FEW009 BKN012 BKN016
     FM252000 26022G28KT P6SM SCT015 BKN035
     FM260200 26020G25KT P6SM SCT025
     FM260900 28010KT P6SM BKN020
     FM261700 28012KT P6SM SCT025
     FM262100 28015KT P6SM FEW025=



000
FTUS46 KMTR 251700
TAFOAK
TAF
KOAK 251739Z 2518/2624 28013KT P6SM SCT008 BKN013 BKN024
     FM252000 27015G20KT P6SM SCT020 BKN040
     FM260200 28015G22KT P6SM SCT025 SCT100
     FM260900 26008KT P6SM BKN015
     FM261700 26011KT P6SM SCT018
     FM262100 29012KT P6SM FEW025=



000
FTUS46 KMTR 251700
TAFSJC
TAF
KSJC 251739Z 2518/2618 31005KT P6SM SCT015 BKN022
     FM252000 31012G18KT P6SM FEW020 SCT035
     FM260700 31005KT P6SM SCT018=



000
FTUS46 KMTR 251700
TAFSTS
TAF
KSTS 251734Z 2518/2618 28007KT P6SM SCT023
     FM252100 28012G18KT P6SM SCT040
     FM260400 30010KT P6SM SCT015
     FM260800 31004KT P6SM BKN012
     FM261600 33005KT P6SM FEW015=



000
FTUS46 KMTR 251500 AAA
TAFSNS
TAF AMD
KSNS 251530Z 2516/2612 23013KT P6SM FEW008 SCT080
     FM251800 27012G18KT P6SM SCT020 SCT040
     FM260200 26008G12KT P6SM BKN015=



000
FTUS46 KMTR 251500 AAA
TAFSNS
TAF AMD
KSNS 251530Z 2516/2612 23013KT P6SM FEW008 SCT080
     FM251800 27012G18KT P6SM SCT020 SCT040
     FM260200 26008G12KT P6SM BKN015=



000
FTUS46 KMTR 251500 AAB
TAFMRY
TAF AMD
KMRY 251513Z 2515/2612 25007KT P6SM SCT006 OVC019
     FM251700 25010G18KT P6SM SCT015 BKN025
     FM260200 24008G12KT P6SM BKN015=



000
FTUS46 KMTR 251500 AAB
TAFLVK
TAF AMD
KLVK 251512Z 2515/2612 27008KT P6SM OVC017
     FM252000 24010G18KT P6SM SCT035 BKN050
     FM260300 22010G18KT P6SM SCT025 SCT100
     FM260600 23004KT P6SM SCT015=



000
FTUS46 KMTR 251500 AAB
TAFSTS
TAF AMD
KSTS 251511Z 2515/2612 00000KT 1/2SM FG VCSH OVC002
      TEMPO 2515/2516 1/4SM FG VV001
     FM251600 30004KT 6SM BR SCT015 BKN035
     FM251900 29012KT P6SM SCT035 BKN050
     FM252100 27012G18KT P6SM SCT040 BKN050
     FM260400 30010KT P6SM SCT015
     FM260800 31004KT P6SM BKN015=



000
FTUS46 KMTR 251500 AAB
TAFSFO
TAF AMD
KSFO 251509Z 2515/2618 27016KT P6SM FEW009 SCT015 OVC019
     FM251800 26022G30KT P6SM SCT015 BKN025
     FM252000 26022G28KT P6SM SCT035 BKN050
     FM260900 28010KT P6SM BKN015=



000
FTUS46 KMTR 251500 AAB
TAFSFO
TAF AMD
KSFO 251509Z 2515/2618 27016KT P6SM FEW009 SCT015 OVC019
     FM251800 26022G30KT P6SM SCT015 BKN025
     FM252000 26022G28KT P6SM SCT035 BKN050
     FM260900 28010KT P6SM BKN015=



000
FTUS46 KMTR 251300 AAA
TAFOAK
TAF AMD
KOAK 251349Z 2514/2618 27015G20KT P6SM SCT012 BKN020
     FM251800 26012KT P6SM SCT015 BKN025
     FM252000 27015G20KT P6SM SCT035 BKN050
     FM260200 28015G22KT P6SM SCT025 SCT100
     FM260900 26010KT P6SM BKN015=



000
FTUS46 KMTR 251300 AAA
TAFMRY
TAF AMD
KMRY 251347Z 2514/2612 21008G18KT 6SM BR VCSH SCT009 BKN020 OVC035
      TEMPO 2514/2516 2SM BR OVC004
     FM251700 25010G18KT P6SM SCT015 BKN025
     FM260200 24008G12KT P6SM BKN015=



000
FTUS46 KMTR 251300 AAA
TAFLVK
TAF AMD
KLVK 251342Z 2514/2612 25012G18KT P6SM BKN012 OVC025
     FM251800 24010G15KT P6SM SCT015 BKN025
     FM252000 24010G18KT P6SM SCT035 BKN050
     FM260300 22010G18KT P6SM SCT025 SCT100
     FM260600 23004KT P6SM SCT015=



000
FTUS46 KMTR 251300 AAA
TAFSJC
TAF AMD
KSJC 251341Z 2514/2612 27008KT P6SM FEW009 BKN015 OVC030
     FM251800 32012KT P6SM SCT015 BKN025
     FM252000 31012G18KT P6SM SCT035 BKN050
     FM260700 31005KT P6SM SCT015=



000
FTUS46 KMTR 251300 AAA
TAFSFO
TAF AMD
KSFO 251339Z 2514/2618 27015KT P6SM BKN012 OVC020
     FM251800 26022G30KT P6SM SCT015 BKN025
     FM252000 26022G28KT P6SM SCT035 BKN050
     FM260900 28010KT P6SM BKN015=



000
FTUS46 KMTR 251200 AAA
TAFSTS
TAF AMD
KSTS 251228Z 2512/2612 15004KT 5SM BR VCSH SCT005 BKN025 OVC035
      TEMPO 2512/2516 1/4SM FG VV001
     FM251600 30004KT 6SM BR SCT025 BKN050
     FM251900 29012KT P6SM SCT035 BKN050
     FM252100 27012G18KT P6SM SCT040 BKN050
     FM260400 30010KT P6SM SCT015
     FM260800 31004KT P6SM BKN015=



000
FTUS46 KMTR 251200 AAA
TAFSTS
TAF AMD
KSTS 251228Z 2512/2612 15004KT 5SM BR VCSH SCT005 BKN025 OVC035
      TEMPO 2512/2516 1/4SM FG VV001
     FM251600 30004KT 6SM BR SCT025 BKN050
     FM251900 29012KT P6SM SCT035 BKN050
     FM252100 27012G18KT P6SM SCT040 BKN050
     FM260400 30010KT P6SM SCT015
     FM260800 31004KT P6SM BKN015=



000
FTUS46 KMTR 251100
TAFSFO
TAF
KSFO 251134Z 2512/2618 26020G25KT P6SM -SHRA BKN009 OVC015
     FM251500 26020G30KT P6SM BKN012 OVC025
     FM251800 26022G30KT P6SM SCT015 BKN025
     FM252000 26022G28KT P6SM SCT035 BKN050
     FM260900 28010KT P6SM BKN015=



000
FTUS46 KMTR 251100
TAFSJC
TAF
KSJC 251134Z 2512/2612 11005KT 5SM -RA BR SCT020 OVC025
      TEMPO 2512/2514 4SM SHRA BKN015
     FM251600 30010KT P6SM BKN015 OVC025
     FM251800 32012KT P6SM SCT015 BKN025
     FM252000 31012G18KT P6SM SCT035 BKN050
     FM260700 31005KT P6SM SCT015=



000
FTUS46 KMTR 251100
TAFLVK
TAF
KLVK 251134Z 2512/2612 26012G18KT P6SM -RA BKN008 OVC012
     FM251500 23010G15KT P6SM BKN012 OVC025
     FM251800 24010G15KT P6SM SCT015 BKN025
     FM252000 24010G18KT P6SM SCT035 BKN050
     FM260300 22010G18KT P6SM SCT025 SCT100
     FM260600 23004KT P6SM SCT015=



000
FTUS46 KMTR 251100
TAFOAK
TAF
KOAK 251134Z 2512/2618 27015G20KT P6SM -SHRA BKN012 OVC015
     FM251500 27010G15KT P6SM BKN012 OVC025
     FM251800 26012KT P6SM SCT015 BKN025
     FM252000 27015G20KT P6SM SCT035 BKN050
     FM260200 28015G22KT P6SM SCT025 SCT100
     FM260900 26010KT P6SM BKN015=



000
FTUS46 KMTR 251100
TAFMRY
TAF
KMRY 251134Z 2512/2612 21008G18KT 4SM -RA BR SCT009 BKN020 OVC035
      TEMPO 2512/2516 2SM SHRA BR BKN009
     FM251700 25010G18KT P6SM SCT015 BKN025
     FM260200 24008G12KT P6SM BKN015=



000
FTUS46 KMTR 251100
TAFSNS
TAF
KSNS 251134Z 2512/2612 15006KT P6SM -RA BKN012 OVC025
      TEMPO 2512/2516 2SM SHRA BR BKN009
     FM251600 25012G18KT P6SM SCT015 BKN025
     FM251800 27012G18KT P6SM SCT020 BKN030
     FM260200 26008G12KT P6SM BKN015=



000
FTUS46 KMTR 251100
TAFSTS
TAF
KSTS 251134Z 2512/2612 15004KT P6SM VCSH SCT005 BKN025 OVC035
      TEMPO 2512/2516 2SM BR BKN005
     FM251600 30004KT 6SM BR SCT025 BKN050
     FM251900 29012KT P6SM SCT035 BKN050
     FM252100 27012G18KT P6SM SCT040 BKN050
     FM260400 30010KT P6SM SCT015
     FM260800 31004KT P6SM BKN015=



000
FTUS46 KMTR 250900 AAB
TAFOAK
TAF AMD
KOAK 250906Z 2509/2612 24020G25KT P6SM -RA SCT012 BKN015 OVC025
      TEMPO 2509/2513 5SM +SHRA OVC010
     FM251400 25015G25KT P6SM FEW030 SCT100
     FM260200 28015G22KT P6SM FEW030 SCT100=



000
FTUS46 KMTR 250900 AAB
TAFOAK
TAF AMD
KOAK 250906Z 2509/2612 24020G25KT P6SM -RA SCT012 BKN015 OVC025
      TEMPO 2509/2513 5SM +SHRA OVC010
     FM251400 25015G25KT P6SM FEW030 SCT100
     FM260200 28015G22KT P6SM FEW030 SCT100=



000
FTUS46 KMTR 250900 AAB
TAFSTS
TAF AMD
KSTS 250905Z 2509/2606 15004KT P6SM FEW012 OVC020
      TEMPO 2509/2512 -SHRA
     FM251300 19004KT 5SM -SHRA BR FEW030 SCT120
     FM251900 29012KT P6SM FEW030 SCT100
     FM260400 24009KT P6SM FEW030=



000
FTUS46 KMTR 250900 AAB
TAFSTS
TAF AMD
KSTS 250905Z 2509/2606 15004KT P6SM FEW012 OVC020
      TEMPO 2509/2512 -SHRA
     FM251300 19004KT 5SM -SHRA BR FEW030 SCT120
     FM251900 29012KT P6SM FEW030 SCT100
     FM260400 24009KT P6SM FEW030=



000
FTUS46 KMTR 250900 AAB
TAFSFO
TAF AMD
KSFO 250902Z 2509/2612 23015G25KT P6SM -SHRA OVC012
      TEMPO 2509/2512 4SM SHRA BR
     FM251600 28020G30KT P6SM FEW030 SCT100
     FM260500 28015G22KT P6SM FEW030 SCT100=



000
FTUS46 KMTR 250800 AAB
TAFLVK
TAF AMD
KLVK 250831Z 2509/2606 21012G18KT P6SM -RA BKN015 BKN035 OVC070
     FM251700 25015G24KT P6SM FEW040 SCT100
     FM260300 26012KT P6SM FEW030=



000
FTUS46 KMTR 250600 AAA
TAFSTS
TAF AMD
KSTS 250659Z 2507/2606 15004KT 4SM RA BR BKN005 OVC009
     FM251300 19004KT 5SM -SHRA BR FEW030 SCT120
     FM251900 29012KT P6SM FEW030 SCT100
     FM260400 24009KT P6SM FEW030=



000
FTUS46 KMTR 250600 AAA
TAFSTS
TAF AMD
KSTS 250659Z 2507/2606 15004KT 4SM RA BR BKN005 OVC009
     FM251300 19004KT 5SM -SHRA BR FEW030 SCT120
     FM251900 29012KT P6SM FEW030 SCT100
     FM260400 24009KT P6SM FEW030=



000
FTUS46 KMTR 250600 AAA
TAFOAK
TAF AMD
KOAK 250654Z 2507/2612 20015KT P6SM -RA SCT012 BKN015 OVC025
     FM251000 22020G25KT P6SM -SHRA BKN015 OVC025
      TEMPO 2510/2514 5SM +SHRA OVC015
     FM251400 25015G25KT P6SM FEW030 SCT100
     FM260200 28015G22KT P6SM FEW030 SCT100=



000
FTUS46 KMTR 250600 AAA
TAFSFO
TAF AMD
KSFO 250651Z 2507/2612 20015KT P6SM -SHRA FEW010 BKN015 OVC025
     FM251000 27017G25KT 6SM SHRA OVC015
     FM251600 28020G30KT P6SM FEW030 SCT100
     FM260500 28015G22KT P6SM FEW030 SCT100=



000
FTUS46 KMTR 250600 AAA
TAFSJC
TAF AMD
KSJC 250649Z 2507/2606 13008KT P6SM -RA BKN025 OVC035
     FM251000 16015G20KT P6SM -RA OVC015
     FM251600 30017G25KT P6SM FEW030 SCT100
     FM260300 30012KT P6SM FEW030 SCT100=



000
FTUS46 KMTR 250600 AAA
TAFLVK
TAF AMD
KLVK 250647Z 2507/2606 22010G15KT P6SM VCSH BKN025 OVC080
     FM250800 25012G18KT P6SM -SHRA OVC025
     FM251000 25015G20KT P6SM -RA OVC015
     FM251700 25015G24KT P6SM FEW040 SCT100
     FM260300 26012KT P6SM FEW030=



000
FTUS46 KMTR 250600 AAA
TAFMRY
TAF AMD
KMRY 250646Z 2507/2606 15004KT P6SM BKN025 OVC035
     FM251000 23006G12KT P6SM -SHRA OVC015
     FM251800 29017G24KT P6SM FEW030 SCT120
     FM260300 29012KT P6SM FEW030 SCT100=



000
FTUS46 KMTR 250600 AAA
TAFSNS
TAF AMD
KSNS 250645Z 2507/2606 26005KT P6SM BKN025 OVC035
     FM251000 25010KT P6SM -SHRA OVC015
     FM251800 29017G30KT P6SM FEW040 SCT120
     FM260300 29017KT P6SM FEW030 SCT120=



000
FTUS46 KMTR 250600 AAA
TAFSNS
TAF AMD
KSNS 250645Z 2507/2606 26005KT P6SM BKN025 OVC035
     FM251000 25010KT P6SM -SHRA OVC015
     FM251800 29017G30KT P6SM FEW040 SCT120
     FM260300 29017KT P6SM FEW030 SCT120=



000
FTUS46 KMTR 250500
TAFMRY
TAF
KMRY 250520Z 2506/2606 25012KT P6SM FEW030 SCT250
     FM251000 23006G12KT P6SM -SHRA OVC015
     FM251800 29017G24KT P6SM FEW030 SCT120
     FM260300 29012KT P6SM FEW030 SCT100=



000
FTUS46 KMTR 250500
TAFSJC
TAF
KSJC 250520Z 2506/2606 28009KT P6SM SCT025 BKN040
     FM250700 20010G15KT P6SM -SHRA BKN020 OVC035
     FM251000 16015G20KT P6SM -RA OVC015
     FM251600 30017G25KT P6SM FEW030 SCT100
     FM260300 30012KT P6SM FEW030 SCT100=



000
FTUS46 KMTR 250500
TAFOAK
TAF
KOAK 250520Z 2506/2612 19011KT P6SM -RA BKN035 OVC050
     FM250900 26020G25KT P6SM -SHRA OVC025
      TEMPO 2510/2514 5SM +SHRA OVC015
     FM251400 29020G30KT P6SM FEW030 SCT100
     FM260200 28015G22KT P6SM FEW030 SCT100=



000
FTUS46 KMTR 250500
TAFSNS
TAF
KSNS 250520Z 2506/2606 26010G15KT P6SM FEW030 SCT250
     FM251000 25010KT P6SM -SHRA OVC015
     FM251800 29017G30KT P6SM FEW040 SCT120
     FM260300 29017KT P6SM FEW030 SCT120=



000
FTUS46 KMTR 250500
TAFLVK
TAF
KLVK 250520Z 2506/2606 25010G15KT P6SM SCT030 BKN200
     FM250800 25012G18KT P6SM -SHRA OVC025
     FM251000 25015G20KT P6SM -RA OVC015
     FM251700 25015G24KT P6SM FEW040 SCT100
     FM260300 26012KT P6SM FEW030=



000
FTUS46 KMTR 250500
TAFMRY
TAF
KMRY 250520Z 2506/2606 25012KT P6SM FEW030 SCT250
     FM251000 23006G12KT P6SM -SHRA OVC015
     FM251800 29017G24KT P6SM FEW030 SCT120
     FM260300 29012KT P6SM FEW030 SCT100=



000
FTUS46 KMTR 250500
TAFSFO
TAF
KSFO 250520Z 2506/2612 17010KT P6SM -SHRA BKN020 OVC040
     FM250900 24010KT P6SM -SHRA OVC025
     FM251000 27017G25KT 6SM SHRA OVC015
     FM251600 28020G30KT P6SM FEW030 SCT100
     FM260500 28015G22KT P6SM FEW030 SCT100=



000
FTUS46 KMTR 250500
TAFOAK
TAF
KOAK 250520Z 2506/2612 19011KT P6SM -RA BKN035 OVC050
     FM250900 26020G25KT P6SM -SHRA OVC025
      TEMPO 2510/2514 5SM +SHRA OVC015
     FM251400 29020G30KT P6SM FEW030 SCT100
     FM260200 28015G22KT P6SM FEW030 SCT100=



000
FTUS46 KMTR 250500
TAFSJC
TAF
KSJC 250520Z 2506/2606 28009KT P6SM SCT025 BKN040
     FM250700 20010G15KT P6SM -SHRA BKN020 OVC035
     FM251000 16015G20KT P6SM -RA OVC015
     FM251600 30017G25KT P6SM FEW030 SCT100
     FM260300 30012KT P6SM FEW030 SCT100=



000
FTUS46 KMTR 250500
TAFSTS
TAF
KSTS 250520Z 2506/2606 16008KT 6SM -SHRA OVC009
      TEMPO 2509/2513 26015G25KT 5SM SHRA OVC009
     FM251300 31014G19KT P6SM FEW030 SCT120
     FM251900 29012KT P6SM FEW030 SCT100
     FM260400 24009KT P6SM FEW030=



000
FTUS46 KMTR 250500
TAFLVK
TAF
KLVK 250520Z 2506/2606 25010G15KT P6SM SCT030 BKN200
     FM250800 25012G18KT P6SM -SHRA OVC025
     FM251000 25015G20KT P6SM -RA OVC015
     FM251700 25015G24KT P6SM FEW040 SCT100
     FM260300 26012KT P6SM FEW030=



000
FTUS46 KMTR 250500
TAFSNS
TAF
KSNS 250520Z 2506/2606 26010G15KT P6SM FEW030 SCT250
     FM251000 25010KT P6SM -SHRA OVC015
     FM251800 29017G30KT P6SM FEW040 SCT120
     FM260300 29017KT P6SM FEW030 SCT120=



000
FTUS46 KMTR 250500
TAFSFO
TAF
KSFO 250520Z 2506/2612 17010KT P6SM -SHRA BKN020 OVC040
     FM250900 24010KT P6SM -SHRA OVC025
     FM251000 27017G25KT 6SM SHRA OVC015
     FM251600 28020G30KT P6SM FEW030 SCT100
     FM260500 28015G22KT P6SM FEW030 SCT100=



000
FTUS46 KMTR 250300 AAA
TAFSFO
TAF AMD
KSFO 250305Z 2503/2606 27010KT P6SM BKN030 OVC100
     FM250700 27010KT P6SM -SHRA OVC025
     FM250900 27017G25KT 6SM SHRA OVC015
     FM251600 28020G30KT P6SM FEW030 SCT100
     FM260500 28015G22KT P6SM FEW030 SCT100=



    US Dept of Commerce
    National Oceanic and Atmospheric Administration
    National Weather Service
    1325 East West Highway
    Silver Spring, MD 20910
    Page Author: NWS Internet Services Team
Disclaimer
Information Quality
Credits
Glossary
Privacy Policy
Freedom of Information Act (FOIA)
About Us
Career Opportunities